createdAt,value
2024-03-22T00:00:56.120Z,6.09
2024-03-22T00:01:56.102Z,6.12
2024-03-22T00:02:56.107Z,6.17
2024-03-22T00:03:56.108Z,6.27
2024-03-22T00:04:56.078Z,6.36
2024-03-22T00:05:56.065Z,6.49
2024-03-22T00:06:56.064Z,6.62
2024-03-22T00:07:56.088Z,6.67
2024-03-22T00:08:56.049Z,6.74
2024-03-22T00:09:56.052Z,6.78
2024-03-22T00:10:56.007Z,6.79
2024-03-22T00:11:55.999Z,6.81
2024-03-22T00:12:56.006Z,6.82
2024-03-22T00:13:55.981Z,6.87
2024-03-22T00:14:55.968Z,6.85
2024-03-22T00:15:55.970Z,6.84
2024-03-22T00:16:55.971Z,6.82
2024-03-22T00:17:55.965Z,6.85
2024-03-22T00:18:55.929Z,6.85
2024-03-22T00:19:55.923Z,6.84
2024-03-22T00:20:55.922Z,6.82
2024-03-22T00:21:55.898Z,6.81
2024-03-22T00:22:55.898Z,6.81
2024-03-22T00:23:55.879Z,6.78
2024-03-22T00:24:55.876Z,6.79
2024-03-22T00:25:55.852Z,6.77
2024-03-22T00:26:55.870Z,6.75
2024-03-22T00:27:55.857Z,6.74
2024-03-22T00:28:55.821Z,6.69
2024-03-22T00:29:55.818Z,6.70
2024-03-22T00:30:55.805Z,6.70
2024-03-22T00:31:56.543Z,6.69
2024-03-22T00:32:55.779Z,6.67
2024-03-22T00:33:55.774Z,6.67
2024-03-22T00:34:55.762Z,6.69
2024-03-22T00:35:55.753Z,6.74
2024-03-22T00:36:55.771Z,6.75
2024-03-22T00:37:55.745Z,6.77
2024-03-22T00:38:55.732Z,6.79
2024-03-22T00:39:55.737Z,6.85
2024-03-22T00:40:55.697Z,6.85
2024-03-22T00:41:55.710Z,6.85
2024-03-22T00:42:55.686Z,6.89
2024-03-22T00:43:55.672Z,6.89
2024-03-22T00:44:55.654Z,6.89
2024-03-22T00:45:55.688Z,6.97
2024-03-22T00:46:55.650Z,7.02
2024-03-22T00:47:55.629Z,6.99
2024-03-22T00:48:55.612Z,6.97
2024-03-22T00:49:55.605Z,6.96
2024-03-22T00:50:55.608Z,6.95
2024-03-22T00:51:55.616Z,6.97
2024-03-22T00:52:55.603Z,6.95
2024-03-22T00:53:55.565Z,6.95
2024-03-22T00:54:55.554Z,6.95
2024-03-22T00:55:55.578Z,6.93
2024-03-22T00:56:55.531Z,6.92
2024-03-22T00:57:55.530Z,6.96
2024-03-22T00:58:55.506Z,6.96
2024-03-22T00:59:55.538Z,6.96
2024-03-22T01:00:55.527Z,6.96
2024-03-22T01:01:55.541Z,6.93
2024-03-22T01:02:55.480Z,6.93
2024-03-22T01:03:55.466Z,6.92
2024-03-22T01:04:55.466Z,6.95
2024-03-22T01:05:55.479Z,6.96
2024-03-22T01:06:55.424Z,6.97
2024-03-22T01:07:55.428Z,6.93
2024-03-22T01:08:55.406Z,6.92
2024-03-22T01:09:55.431Z,6.89
2024-03-22T01:10:55.395Z,6.92
2024-03-22T01:11:55.382Z,6.93
2024-03-22T01:12:55.391Z,6.96
2024-03-22T01:13:55.370Z,6.97
2024-03-22T01:14:55.387Z,7.03
2024-03-22T01:15:55.346Z,7.03
2024-03-22T01:16:55.335Z,7.11
2024-03-22T01:17:55.325Z,7.14
2024-03-22T01:18:55.320Z,7.14
2024-03-22T01:19:55.312Z,7.13
2024-03-22T01:20:55.278Z,7.13
2024-03-22T01:21:55.277Z,7.11
2024-03-22T01:22:55.274Z,7.07
2024-03-22T01:23:55.274Z,7.05
2024-03-22T01:24:55.259Z,7.06
2024-03-22T01:25:55.238Z,7.05
2024-03-22T01:26:55.224Z,7.03
2024-03-22T01:27:55.219Z,7.03
2024-03-22T01:28:57.789Z,7.05
2024-03-22T01:29:55.197Z,7.07
2024-03-22T01:30:55.185Z,7.07
2024-03-22T01:31:55.174Z,7.06
2024-03-22T01:32:55.178Z,7.03
2024-03-22T01:33:55.204Z,7.07
2024-03-22T01:34:55.174Z,7.10
2024-03-22T01:35:55.133Z,7.15
2024-03-22T01:36:55.131Z,7.23
2024-03-22T01:37:55.139Z,7.28
2024-03-22T01:38:55.096Z,7.31
2024-03-22T01:39:55.107Z,7.33
2024-03-22T01:40:55.079Z,7.35
2024-03-22T01:41:55.081Z,7.38
2024-03-22T01:42:55.078Z,7.42
2024-03-22T01:43:55.058Z,7.47
2024-03-22T01:44:55.053Z,7.48
2024-03-22T01:45:55.043Z,7.51
2024-03-22T01:46:55.019Z,7.51
2024-03-22T01:47:55.086Z,7.53
2024-03-22T01:48:55.014Z,7.51
2024-03-22T01:49:55.034Z,7.54
2024-03-22T01:50:54.984Z,7.53
2024-03-22T01:51:54.989Z,7.54
2024-03-22T01:52:54.979Z,7.56
2024-03-22T01:53:54.961Z,7.51
2024-03-22T01:54:54.946Z,7.48
2024-03-22T01:55:54.933Z,7.51
2024-03-22T01:56:54.939Z,7.50
2024-03-22T01:57:54.926Z,7.53
2024-03-22T01:58:54.894Z,7.51
2024-03-22T01:59:54.899Z,7.50
2024-03-22T02:00:54.879Z,7.51
2024-03-22T02:01:54.892Z,7.51
2024-03-22T02:02:54.854Z,7.51
2024-03-22T02:03:54.857Z,7.48
2024-03-22T02:04:54.847Z,7.45
2024-03-22T02:05:54.847Z,7.39
2024-03-22T02:06:54.831Z,7.39
2024-03-22T02:07:54.845Z,7.39
2024-03-22T02:08:54.804Z,7.36
2024-03-22T02:09:54.800Z,7.32
2024-03-22T02:10:54.807Z,7.29
2024-03-22T02:11:54.774Z,7.28
2024-03-22T02:12:54.759Z,7.25
2024-03-22T02:13:54.752Z,7.23
2024-03-22T02:14:54.743Z,7.29
2024-03-22T02:15:54.753Z,7.24
2024-03-22T02:16:54.734Z,7.25
2024-03-22T02:17:54.715Z,7.25
2024-03-22T02:18:54.697Z,7.28
2024-03-22T02:19:54.701Z,7.21
2024-03-22T02:20:54.689Z,7.15
2024-03-22T02:21:54.689Z,7.11
2024-03-22T02:22:54.662Z,7.07
2024-03-22T02:23:54.667Z,6.99
2024-03-22T02:24:54.645Z,6.97
2024-03-22T02:25:54.646Z,6.93
2024-03-22T02:26:54.623Z,6.89
2024-03-22T02:27:54.615Z,6.89
2024-03-22T02:28:54.610Z,6.88
2024-03-22T02:29:54.620Z,6.89
2024-03-22T02:30:54.619Z,6.93
2024-03-22T02:31:54.574Z,6.93
2024-03-22T02:32:54.567Z,6.89
2024-03-22T02:33:54.552Z,6.85
2024-03-22T02:35:00.581Z,6.84
2024-03-22T02:35:54.536Z,6.85
2024-03-22T02:36:54.524Z,6.85
2024-03-22T02:37:54.513Z,6.88
2024-03-22T02:38:54.539Z,6.88
2024-03-22T02:39:54.513Z,6.87
2024-03-22T02:40:54.482Z,6.82
2024-03-22T02:41:54.486Z,6.88
2024-03-22T02:42:54.473Z,6.87
2024-03-22T02:43:54.456Z,6.87
2024-03-22T02:44:54.455Z,6.88
2024-03-22T02:45:54.445Z,6.87
2024-03-22T02:46:54.419Z,6.88
2024-03-22T02:47:54.434Z,6.87
2024-03-22T02:48:54.426Z,6.87
2024-03-22T02:49:54.458Z,6.85
2024-03-22T02:50:54.376Z,6.82
2024-03-22T02:51:54.370Z,6.85
2024-03-22T02:52:54.356Z,6.85
2024-03-22T02:53:54.370Z,6.87
2024-03-22T02:54:54.362Z,6.84
2024-03-22T02:55:54.342Z,6.81
2024-03-22T02:56:54.311Z,6.81
2024-03-22T02:57:54.311Z,6.79
2024-03-22T02:58:55.098Z,6.81
2024-03-22T02:59:54.297Z,6.81
2024-03-22T03:00:54.273Z,6.81
2024-03-22T03:01:54.269Z,6.84
2024-03-22T03:02:54.276Z,6.81
2024-03-22T03:03:54.272Z,6.84
2024-03-22T03:04:54.236Z,6.84
2024-03-22T03:05:54.246Z,6.84
2024-03-22T03:06:54.216Z,6.82
2024-03-22T03:07:54.248Z,6.84
2024-03-22T03:08:54.210Z,6.85
2024-03-22T03:09:54.193Z,6.85
2024-03-22T03:10:54.177Z,6.87
2024-03-22T03:11:54.166Z,6.92
2024-03-22T03:12:54.250Z,6.88
2024-03-22T03:13:54.148Z,6.89
2024-03-22T03:14:54.137Z,6.89
2024-03-22T03:15:54.124Z,6.92
2024-03-22T03:16:54.128Z,6.92
2024-03-22T03:17:54.121Z,6.96
2024-03-22T03:18:54.093Z,6.99
2024-03-22T03:19:54.083Z,6.97
2024-03-22T03:20:54.066Z,6.93
2024-03-22T03:21:54.182Z,6.93
2024-03-22T03:22:54.080Z,6.93
2024-03-22T03:23:54.094Z,6.93
2024-03-22T03:24:54.027Z,6.92
2024-03-22T03:25:54.025Z,6.95
2024-03-22T03:26:54.142Z,6.95
2024-03-22T03:27:54.008Z,6.97
2024-03-22T03:28:53.998Z,6.95
2024-03-22T03:29:53.975Z,6.95
2024-03-22T03:30:53.980Z,6.95
2024-03-22T03:31:54.314Z,6.97
2024-03-22T03:32:54.027Z,6.95
2024-03-22T03:33:53.941Z,6.93
2024-03-22T03:34:53.925Z,6.95
2024-03-22T03:35:53.936Z,6.95
2024-03-22T03:36:54.305Z,6.95
2024-03-22T03:37:53.902Z,6.97
2024-03-22T03:38:53.887Z,7.00
2024-03-22T03:39:53.875Z,7.02
2024-03-22T03:40:53.890Z,7.03
2024-03-22T03:41:53.849Z,7.10
2024-03-22T03:42:53.879Z,7.13
2024-03-22T03:43:53.840Z,7.14
2024-03-22T03:44:53.827Z,7.14
2024-03-22T03:45:53.844Z,7.20
2024-03-22T03:46:53.803Z,7.21
2024-03-22T03:47:53.794Z,7.25
2024-03-22T03:48:53.778Z,7.28
2024-03-22T03:49:53.791Z,7.29
2024-03-22T03:50:53.775Z,7.31
2024-03-22T03:51:53.764Z,7.33
2024-03-22T03:52:53.736Z,7.29
2024-03-22T03:53:53.733Z,7.31
2024-03-22T03:54:53.733Z,7.35
2024-03-22T03:55:53.718Z,7.33
2024-03-22T03:56:53.695Z,7.35
2024-03-22T03:57:53.694Z,7.35
2024-03-22T03:58:53.682Z,7.36
2024-03-22T03:59:53.685Z,7.36
2024-03-22T04:00:53.708Z,7.38
2024-03-22T04:01:53.651Z,7.36
2024-03-22T04:02:53.655Z,7.38
2024-03-22T04:03:53.633Z,7.42
2024-03-22T04:04:56.170Z,7.39
2024-03-22T04:05:53.618Z,7.39
2024-03-22T04:06:53.589Z,7.38
2024-03-22T04:07:53.619Z,7.40
2024-03-22T04:08:53.590Z,7.39
2024-03-22T04:09:53.611Z,7.40
2024-03-22T04:10:53.560Z,7.39
2024-03-22T04:11:53.552Z,7.36
2024-03-22T04:12:53.542Z,7.42
2024-03-22T04:13:53.571Z,7.40
2024-03-22T04:14:53.517Z,7.40
2024-03-22T04:15:53.506Z,7.42
2024-03-22T04:16:53.490Z,7.38
2024-03-22T04:17:53.485Z,7.38
2024-03-22T04:18:53.497Z,7.36
2024-03-22T04:19:53.469Z,7.33
2024-03-22T04:20:53.450Z,7.33
2024-03-22T04:21:53.448Z,7.36
2024-03-22T04:22:53.460Z,7.33
2024-03-22T04:23:53.460Z,7.31
2024-03-22T04:24:53.415Z,7.28
2024-03-22T04:25:53.407Z,7.24
2024-03-22T04:26:53.394Z,7.23
2024-03-22T04:27:53.405Z,7.24
2024-03-22T04:28:53.381Z,7.24
2024-03-22T04:29:53.369Z,7.24
2024-03-22T04:30:53.360Z,7.25
2024-03-22T04:31:53.342Z,7.25
2024-03-22T04:32:53.360Z,7.28
2024-03-22T04:33:53.330Z,7.29
2024-03-22T04:34:53.331Z,7.29
2024-03-22T04:35:53.299Z,7.35
2024-03-22T04:36:53.335Z,7.35
2024-03-22T04:37:53.306Z,7.36
2024-03-22T04:38:53.279Z,7.39
2024-03-22T04:39:53.274Z,7.45
2024-03-22T04:40:53.275Z,7.48
2024-03-22T04:41:53.251Z,7.50
2024-03-22T04:42:53.232Z,7.56
2024-03-22T04:43:53.232Z,7.53
2024-03-22T04:44:53.223Z,7.56
2024-03-22T04:45:53.199Z,7.56
2024-03-22T04:46:53.205Z,7.57
2024-03-22T04:47:53.193Z,7.60
2024-03-22T04:48:53.176Z,7.66
2024-03-22T04:49:53.170Z,7.67
2024-03-22T04:50:53.154Z,7.70
2024-03-22T04:51:53.111Z,7.70
2024-03-22T04:52:53.078Z,7.70
2024-03-22T04:53:53.059Z,7.72
2024-03-22T04:54:53.056Z,7.72
2024-03-22T04:55:53.068Z,7.72
2024-03-22T04:56:53.111Z,7.67
2024-03-22T04:57:53.035Z,7.70
2024-03-22T04:58:53.024Z,7.66
2024-03-22T04:59:53.000Z,7.67
2024-03-22T05:00:53.079Z,7.69
2024-03-22T05:01:53.005Z,7.69
2024-03-22T05:02:52.987Z,7.67
2024-03-22T05:03:52.959Z,7.67
2024-03-22T05:04:52.955Z,7.70
2024-03-22T05:05:52.980Z,7.67
2024-03-22T05:06:52.940Z,7.66
2024-03-22T05:07:52.933Z,7.63
2024-03-22T05:08:52.917Z,7.60
2024-03-22T05:09:52.897Z,7.60
2024-03-22T05:10:52.942Z,7.61
2024-03-22T05:11:52.877Z,7.63
2024-03-22T05:12:52.871Z,7.67
2024-03-22T05:13:52.884Z,7.66
2024-03-22T05:14:52.892Z,7.69
2024-03-22T05:15:52.857Z,7.61
2024-03-22T05:16:52.842Z,7.63
2024-03-22T05:17:52.818Z,7.69
2024-03-22T05:18:52.816Z,7.69
2024-03-22T05:19:52.821Z,7.70
2024-03-22T05:20:52.790Z,7.72
2024-03-22T05:21:52.781Z,7.76
2024-03-22T05:22:52.773Z,7.73
2024-03-22T05:23:52.762Z,7.77
2024-03-22T05:24:52.770Z,7.79
2024-03-22T05:25:52.736Z,7.80
2024-03-22T05:26:52.738Z,7.83
2024-03-22T05:27:52.725Z,7.85
2024-03-22T05:28:52.714Z,7.90
2024-03-22T05:29:52.715Z,7.88
2024-03-22T05:30:52.701Z,7.90
2024-03-22T05:31:52.690Z,7.93
2024-03-22T05:32:52.691Z,7.94
2024-03-22T05:33:52.676Z,7.94
2024-03-22T05:34:52.681Z,7.94
2024-03-22T05:35:52.641Z,7.95
2024-03-22T05:36:52.635Z,7.94
2024-03-22T05:37:52.617Z,7.97
2024-03-22T05:38:52.631Z,7.98
2024-03-22T05:39:52.615Z,7.98
2024-03-22T05:40:52.593Z,8.00
2024-03-22T05:41:52.583Z,8.05
2024-03-22T05:42:52.596Z,8.06
2024-03-22T05:43:52.654Z,8.08
2024-03-22T05:44:52.574Z,8.08
2024-03-22T05:45:52.552Z,8.09
2024-03-22T05:46:52.536Z,8.08
2024-03-22T05:47:52.546Z,8.09
2024-03-22T05:48:52.538Z,8.09
2024-03-22T05:49:52.503Z,8.09
2024-03-22T05:50:52.511Z,8.09
2024-03-22T05:51:52.480Z,8.09
2024-03-22T05:52:52.495Z,8.08
2024-03-22T05:53:52.472Z,8.08
2024-03-22T05:54:52.471Z,8.08
2024-03-22T05:55:52.441Z,8.08
2024-03-22T05:56:52.480Z,8.08
2024-03-22T05:57:52.437Z,8.08
2024-03-22T05:58:52.490Z,8.06
2024-03-22T05:59:52.524Z,8.08
2024-03-22T06:00:52.394Z,8.09
2024-03-22T06:01:52.400Z,8.10
2024-03-22T06:02:52.472Z,8.12
2024-03-22T06:03:52.367Z,8.12
2024-03-22T06:04:52.374Z,8.13
2024-03-22T06:05:52.337Z,8.18
2024-03-22T06:06:52.361Z,8.18
2024-03-22T06:07:52.325Z,8.19
2024-03-22T06:08:52.316Z,8.23
2024-03-22T06:09:52.309Z,8.23
2024-03-22T06:10:52.293Z,8.20
2024-03-22T06:11:52.824Z,8.19
2024-03-22T06:12:52.274Z,8.20
2024-03-22T06:13:52.268Z,8.18
2024-03-22T06:14:52.277Z,8.16
2024-03-22T06:15:52.246Z,8.18
2024-03-22T06:16:52.247Z,8.19
2024-03-22T06:17:52.208Z,8.24
2024-03-22T06:18:52.215Z,8.24
2024-03-22T06:19:52.192Z,8.24
2024-03-22T06:20:52.212Z,8.28
2024-03-22T06:21:52.192Z,8.30
2024-03-22T06:22:52.184Z,8.31
2024-03-22T06:23:52.162Z,8.36
2024-03-22T06:24:52.150Z,8.34
2024-03-22T06:25:52.158Z,8.34
2024-03-22T06:26:58.146Z,8.36
2024-03-22T06:27:53.679Z,8.44
2024-03-22T06:28:52.157Z,8.45
2024-03-22T06:29:52.708Z,8.44
2024-03-22T06:30:52.111Z,8.48
2024-03-22T06:31:52.217Z,8.49
2024-03-22T06:32:52.070Z,8.48
2024-03-22T06:33:52.054Z,8.51
2024-03-22T06:34:52.066Z,8.52
2024-03-22T06:35:52.030Z,8.53
2024-03-22T06:36:52.033Z,8.53
2024-03-22T06:37:52.026Z,8.55
2024-03-22T06:38:52.006Z,8.58
2024-03-22T06:39:52.024Z,8.60
2024-03-22T06:40:51.981Z,8.60
2024-03-22T06:41:51.967Z,8.61
2024-03-22T06:42:51.956Z,8.63
2024-03-22T06:43:51.941Z,8.63
2024-03-22T06:44:51.976Z,8.66
2024-03-22T06:45:51.931Z,8.67
2024-03-22T06:46:51.930Z,8.69
2024-03-22T06:47:51.939Z,8.73
2024-03-22T06:48:51.911Z,8.76
2024-03-22T06:49:51.906Z,8.78
2024-03-22T06:50:51.873Z,8.84
2024-03-22T06:51:51.863Z,8.85
2024-03-22T06:52:51.866Z,8.88
2024-03-22T06:53:53.398Z,8.95
2024-03-22T06:54:51.834Z,8.99
2024-03-22T06:55:51.820Z,9.02
2024-03-22T06:56:51.815Z,9.10
2024-03-22T06:57:51.805Z,9.16
2024-03-22T06:58:51.817Z,9.18
2024-03-22T06:59:51.791Z,9.23
2024-03-22T07:00:51.768Z,9.26
2024-03-22T07:01:51.772Z,9.32
2024-03-22T07:02:51.778Z,9.36
2024-03-22T07:03:51.832Z,9.39
2024-03-22T07:04:51.766Z,9.47
2024-03-22T07:05:51.821Z,9.47
2024-03-22T07:06:51.754Z,9.51
2024-03-22T07:07:51.718Z,9.56
2024-03-22T07:08:51.712Z,9.58
2024-03-22T07:09:51.709Z,9.59
2024-03-22T07:10:51.682Z,9.64
2024-03-22T07:11:51.689Z,9.64
2024-03-22T07:12:51.658Z,9.66
2024-03-22T07:13:51.651Z,9.68
2024-03-22T07:14:51.632Z,9.77
2024-03-22T07:15:51.615Z,9.82
2024-03-22T07:16:51.662Z,9.79
2024-03-22T07:17:51.686Z,9.83
2024-03-22T07:18:51.590Z,9.87
2024-03-22T07:19:51.565Z,9.94
2024-03-22T07:20:51.581Z,10.04
2024-03-22T07:21:51.573Z,10.04
2024-03-22T07:22:51.558Z,10.01
2024-03-22T07:23:51.535Z,10.04
2024-03-22T07:24:51.529Z,10.02
2024-03-22T07:25:51.530Z,10.04
2024-03-22T07:26:51.544Z,10.09
2024-03-22T07:27:51.495Z,10.28
2024-03-22T07:28:51.490Z,10.40
2024-03-22T07:29:51.471Z,10.72
2024-03-22T07:30:51.465Z,11.05
2024-03-22T07:31:51.460Z,11.22
2024-03-22T07:32:51.746Z,11.30
2024-03-22T07:33:51.537Z,11.32
2024-03-22T07:34:51.416Z,11.44
2024-03-22T07:35:51.425Z,11.44
2024-03-22T07:36:51.423Z,11.43
2024-03-22T07:37:51.515Z,11.30
2024-03-22T07:38:51.452Z,11.30
2024-03-22T07:39:51.372Z,11.41
2024-03-22T07:40:51.391Z,11.87
2024-03-22T07:41:51.357Z,12.02
2024-03-22T07:42:51.396Z,11.88
2024-03-22T07:43:51.312Z,11.65
2024-03-22T07:44:51.368Z,11.54
2024-03-22T07:45:51.372Z,11.62
2024-03-22T07:46:51.313Z,11.72
2024-03-22T07:47:51.302Z,11.72
2024-03-22T07:48:51.264Z,11.57
2024-03-22T07:49:51.739Z,11.48
2024-03-22T07:50:51.264Z,11.45
2024-03-22T07:51:51.276Z,11.37
2024-03-22T07:52:51.225Z,11.48
2024-03-22T07:53:51.231Z,11.70
2024-03-22T07:54:51.222Z,11.72
2024-03-22T07:55:51.262Z,11.60
2024-03-22T07:56:51.212Z,11.55
2024-03-22T07:57:51.213Z,11.48
2024-03-22T07:58:51.240Z,11.36
2024-03-22T07:59:51.989Z,11.41
2024-03-22T08:00:51.155Z,11.41
2024-03-22T08:01:51.167Z,11.40
2024-03-22T08:02:51.184Z,11.47
2024-03-22T08:03:51.173Z,11.44
2024-03-22T08:04:51.362Z,11.50
2024-03-22T08:05:51.102Z,11.62
2024-03-22T08:06:51.083Z,11.75
2024-03-22T08:07:51.076Z,11.97
2024-03-22T08:08:51.102Z,11.88
2024-03-22T08:09:51.036Z,11.94
2024-03-22T08:10:51.043Z,12.31
2024-03-22T08:11:51.085Z,12.21
2024-03-22T08:12:51.012Z,12.00
2024-03-22T08:13:51.046Z,11.94
2024-03-22T08:14:51.010Z,11.86
2024-03-22T08:15:50.985Z,11.77
2024-03-22T08:16:51.046Z,11.72
2024-03-22T08:17:51.053Z,11.69
2024-03-22T08:18:50.987Z,11.75
2024-03-22T08:19:50.938Z,11.83
2024-03-22T08:20:50.986Z,11.83
2024-03-22T08:21:50.908Z,11.87
2024-03-22T08:22:51.029Z,11.80
2024-03-22T08:23:51.029Z,11.70
2024-03-22T08:24:51.000Z,11.75
2024-03-22T08:25:50.892Z,11.90
2024-03-22T08:26:50.959Z,12.09
2024-03-22T08:28:00.729Z,12.15
2024-03-22T08:28:51.197Z,12.29
2024-03-22T08:29:50.855Z,12.40
2024-03-22T08:30:52.061Z,12.29
2024-03-22T08:31:50.922Z,12.29
2024-03-22T08:32:50.887Z,12.17
2024-03-22T08:33:50.797Z,12.07
2024-03-22T08:34:50.798Z,11.99
2024-03-22T08:35:50.875Z,11.91
2024-03-22T08:36:50.828Z,11.86
2024-03-22T08:37:50.818Z,11.78
2024-03-22T08:38:50.859Z,11.75
2024-03-22T08:39:50.728Z,11.84
2024-03-22T08:40:50.742Z,11.78
2024-03-22T08:41:50.968Z,11.65
2024-03-22T08:42:50.725Z,11.65
2024-03-22T08:43:50.741Z,11.59
2024-03-22T08:44:50.668Z,11.60
2024-03-22T08:45:50.695Z,11.51
2024-03-22T08:46:50.670Z,11.54
2024-03-22T08:47:50.671Z,11.60
2024-03-22T08:48:50.655Z,11.63
2024-03-22T08:49:50.690Z,11.65
2024-03-22T08:50:50.743Z,11.59
2024-03-22T08:51:50.783Z,11.65
2024-03-22T08:52:50.602Z,11.60
2024-03-22T08:53:50.667Z,11.63
2024-03-22T08:54:50.573Z,11.65
2024-03-22T08:55:50.605Z,11.57
2024-03-22T08:56:50.664Z,11.54
2024-03-22T08:57:58.002Z,11.62
2024-03-22T08:58:50.536Z,11.57
2024-03-22T08:59:50.574Z,11.55
2024-03-22T09:00:50.538Z,11.51
2024-03-22T09:01:50.503Z,11.55
2024-03-22T09:02:50.508Z,11.57
2024-03-22T09:03:50.496Z,11.57
2024-03-22T09:04:50.502Z,11.55
2024-03-22T09:05:56.664Z,11.51
2024-03-22T09:06:50.446Z,11.51
2024-03-22T09:07:50.871Z,11.51
2024-03-22T09:08:50.434Z,11.52
2024-03-22T09:09:50.948Z,11.57
2024-03-22T09:10:50.492Z,11.66
2024-03-22T09:11:50.427Z,11.77
2024-03-22T09:12:50.400Z,11.77
2024-03-22T09:13:50.407Z,11.77
2024-03-22T09:14:50.496Z,11.81
2024-03-22T09:15:50.411Z,11.78
2024-03-22T09:16:50.335Z,11.78
2024-03-22T09:17:50.497Z,11.75
2024-03-22T09:18:50.367Z,11.73
2024-03-22T09:19:50.356Z,11.80
2024-03-22T09:20:50.486Z,11.78
2024-03-22T09:21:50.286Z,11.69
2024-03-22T09:22:50.374Z,11.66
2024-03-22T09:23:50.299Z,11.65
2024-03-22T09:24:50.250Z,11.63
2024-03-22T09:25:50.249Z,11.63
2024-03-22T09:26:50.233Z,11.69
2024-03-22T09:27:50.270Z,11.72
2024-03-22T09:28:50.211Z,11.78
2024-03-22T09:29:50.215Z,11.86
2024-03-22T09:30:57.608Z,11.90
2024-03-22T09:31:50.355Z,11.91
2024-03-22T09:32:50.283Z,11.95
2024-03-22T09:33:50.260Z,11.94
2024-03-22T09:34:50.156Z,11.90
2024-03-22T09:35:50.200Z,11.87
2024-03-22T09:36:50.147Z,11.87
2024-03-22T09:37:50.293Z,11.78
2024-03-22T09:38:50.201Z,11.78
2024-03-22T09:39:50.194Z,11.73
2024-03-22T09:40:50.087Z,11.70
2024-03-22T09:41:50.877Z,11.70
2024-03-22T09:42:50.099Z,11.66
2024-03-22T09:43:50.074Z,11.73
2024-03-22T09:44:50.098Z,11.75
2024-03-22T09:45:50.029Z,11.78
2024-03-22T09:46:51.039Z,11.81
2024-03-22T09:47:50.055Z,11.88
2024-03-22T09:48:50.098Z,11.99
2024-03-22T09:49:50.000Z,12.09
2024-03-22T09:50:50.076Z,12.12
2024-03-22T09:51:50.077Z,12.28
2024-03-22T09:52:49.947Z,12.35
2024-03-22T09:53:50.336Z,12.45
2024-03-22T09:54:50.001Z,12.49
2024-03-22T09:55:50.040Z,12.58
2024-03-22T09:56:49.943Z,12.68
2024-03-22T09:57:49.928Z,12.79
2024-03-22T09:58:50.099Z,12.94
2024-03-22T09:59:50.010Z,12.98
2024-03-22T10:00:49.962Z,13.04
2024-03-22T10:01:49.896Z,13.04
2024-03-22T10:02:49.863Z,13.04
2024-03-22T10:03:49.892Z,13.12
2024-03-22T10:04:49.837Z,13.18
2024-03-22T10:05:50.322Z,13.13
2024-03-22T10:06:49.859Z,13.31
2024-03-22T10:07:49.851Z,13.47
2024-03-22T10:08:49.824Z,13.53
2024-03-22T10:09:49.896Z,13.56
2024-03-22T10:10:49.790Z,13.72
2024-03-22T10:11:49.786Z,13.81
2024-03-22T10:12:49.865Z,13.86
2024-03-22T10:13:49.752Z,13.78
2024-03-22T10:14:49.783Z,13.74
2024-03-22T10:15:49.729Z,13.68
2024-03-22T10:16:49.783Z,13.75
2024-03-22T10:17:49.734Z,13.74
2024-03-22T10:18:49.737Z,13.68
2024-03-22T10:19:49.749Z,13.60
2024-03-22T10:20:49.670Z,13.54
2024-03-22T10:21:49.740Z,13.54
2024-03-22T10:22:49.662Z,13.46
2024-03-22T10:23:49.651Z,13.41
2024-03-22T10:24:49.655Z,13.49
2024-03-22T10:25:49.621Z,13.44
2024-03-22T10:26:49.597Z,13.54
2024-03-22T10:27:49.686Z,13.53
2024-03-22T10:28:49.678Z,13.54
2024-03-22T10:29:49.613Z,13.62
2024-03-22T10:30:49.564Z,13.68
2024-03-22T10:31:49.595Z,13.70
2024-03-22T10:32:49.529Z,13.74
2024-03-22T10:33:49.653Z,13.79
2024-03-22T10:34:49.535Z,13.83
2024-03-22T10:35:49.558Z,13.83
2024-03-22T10:36:49.540Z,13.81
2024-03-22T10:37:52.614Z,13.81
2024-03-22T10:38:49.560Z,13.86
2024-03-22T10:39:49.474Z,13.86
2024-03-22T10:40:49.524Z,13.99
2024-03-22T10:41:49.549Z,14.14
2024-03-22T10:42:49.558Z,14.20
2024-03-22T10:43:49.425Z,14.37
2024-03-22T10:44:49.439Z,14.37
2024-03-22T10:45:49.563Z,14.29
2024-03-22T10:46:49.441Z,14.28
2024-03-22T10:47:49.446Z,14.26
2024-03-22T10:48:49.393Z,14.32
2024-03-22T10:49:51.121Z,14.32
2024-03-22T10:50:49.456Z,14.40
2024-03-22T10:51:49.357Z,14.44
2024-03-22T10:52:49.482Z,14.44
2024-03-22T10:53:49.352Z,14.43
2024-03-22T10:54:49.324Z,14.53
2024-03-22T10:55:49.323Z,14.58
2024-03-22T10:56:49.424Z,14.65
2024-03-22T10:57:49.381Z,14.85
2024-03-22T10:58:49.458Z,14.99
2024-03-22T10:59:49.568Z,15.11
2024-03-22T11:00:49.243Z,15.29
2024-03-22T11:01:49.756Z,15.42
2024-03-22T11:02:49.236Z,15.82
2024-03-22T11:03:49.221Z,15.86
2024-03-22T11:04:49.218Z,15.88
2024-03-22T11:05:49.232Z,15.94
2024-03-22T11:06:49.192Z,16.13
2024-03-22T11:07:49.189Z,16.17
2024-03-22T11:08:49.223Z,16.31
2024-03-22T11:09:49.168Z,16.31
2024-03-22T11:10:49.193Z,16.32
2024-03-22T11:11:49.149Z,16.28
2024-03-22T11:12:49.177Z,16.32
2024-03-22T11:13:49.099Z,16.21
2024-03-22T11:14:50.603Z,16.16
2024-03-22T11:15:49.102Z,16.32
2024-03-22T11:16:49.075Z,16.60
2024-03-22T11:17:49.207Z,16.69
2024-03-22T11:18:49.047Z,16.83
2024-03-22T11:19:49.045Z,16.78
2024-03-22T11:20:49.039Z,16.81
2024-03-22T11:21:49.036Z,16.72
2024-03-22T11:22:49.011Z,16.74
2024-03-22T11:23:49.623Z,16.50
2024-03-22T11:24:49.875Z,16.38
2024-03-22T11:25:48.994Z,16.43
2024-03-22T11:26:48.963Z,16.58
2024-03-22T11:27:48.956Z,16.72
2024-03-22T11:28:48.936Z,16.94
2024-03-22T11:29:48.963Z,17.19
2024-03-22T11:30:48.936Z,17.20
2024-03-22T11:31:48.912Z,17.24
2024-03-22T11:32:48.922Z,17.19
2024-03-22T11:33:48.916Z,17.14
2024-03-22T11:34:48.913Z,17.19
2024-03-22T11:35:48.906Z,17.01
2024-03-22T11:36:48.849Z,16.81
2024-03-22T11:37:48.865Z,16.74
2024-03-22T11:38:48.911Z,16.68
2024-03-22T11:39:48.862Z,16.81
2024-03-22T11:40:48.817Z,16.84
2024-03-22T11:41:48.839Z,16.87
2024-03-22T11:42:48.794Z,16.74
2024-03-22T11:43:48.834Z,16.74
2024-03-22T11:44:48.773Z,17.05
2024-03-22T11:45:48.781Z,17.06
2024-03-22T11:46:48.757Z,17.12
2024-03-22T11:47:48.748Z,17.44
2024-03-22T11:48:49.005Z,17.23
2024-03-22T11:49:48.779Z,17.29
2024-03-22T11:50:48.791Z,17.20
2024-03-22T11:51:48.705Z,17.20
2024-03-22T11:52:48.834Z,17.33
2024-03-22T11:53:48.708Z,17.26
2024-03-22T11:54:48.665Z,17.20
2024-03-22T11:55:48.662Z,16.89
2024-03-22T11:56:48.694Z,16.65
2024-03-22T11:57:48.660Z,16.47
2024-03-22T11:58:48.705Z,16.31
2024-03-22T12:00:02.608Z,16.26
2024-03-22T12:01:12.031Z,16.26
2024-03-22T12:01:48.683Z,16.26
2024-03-22T12:02:48.605Z,16.26
2024-03-22T12:03:48.582Z,16.24
2024-03-22T12:04:48.579Z,16.23
2024-03-22T12:05:48.722Z,16.23
2024-03-22T12:06:48.573Z,16.23
2024-03-22T12:07:48.653Z,16.15
2024-03-22T12:08:48.554Z,16.00
2024-03-22T12:09:48.516Z,15.98
2024-03-22T12:10:48.563Z,16.02
2024-03-22T12:11:48.549Z,16.24
2024-03-22T12:12:48.492Z,16.33
2024-03-22T12:13:48.492Z,16.42
2024-03-22T12:14:48.456Z,16.54
2024-03-22T12:15:48.464Z,16.61
2024-03-22T12:16:48.459Z,16.68
2024-03-22T12:17:48.489Z,16.93
2024-03-22T12:18:48.414Z,17.09
2024-03-22T12:19:48.415Z,17.06
2024-03-22T12:20:48.415Z,17.05
2024-03-22T12:21:48.428Z,16.94
2024-03-22T12:22:48.388Z,16.69
2024-03-22T12:23:48.371Z,16.60
2024-03-22T12:24:48.439Z,16.56
2024-03-22T12:25:48.376Z,16.42
2024-03-22T12:26:48.381Z,16.33
2024-03-22T12:27:48.328Z,16.26
2024-03-22T12:28:48.312Z,16.31
2024-03-22T12:29:48.302Z,16.26
2024-03-22T12:30:48.308Z,16.23
2024-03-22T12:31:48.282Z,16.38
2024-03-22T12:32:48.271Z,16.51
2024-03-22T12:33:48.291Z,16.53
2024-03-22T12:34:48.242Z,16.42
2024-03-22T12:35:48.271Z,16.60
2024-03-22T12:36:48.231Z,16.78
2024-03-22T12:37:48.212Z,16.89
2024-03-22T12:38:48.235Z,17.19
2024-03-22T12:39:48.218Z,17.38
2024-03-22T12:40:48.202Z,17.42
2024-03-22T12:41:48.195Z,17.29
2024-03-22T12:42:48.169Z,17.05
2024-03-22T12:43:54.481Z,16.81
2024-03-22T12:44:48.164Z,16.69
2024-03-22T12:45:48.196Z,16.65
2024-03-22T12:46:48.126Z,16.61
2024-03-22T12:47:48.120Z,16.68
2024-03-22T12:48:48.103Z,16.74
2024-03-22T12:49:48.110Z,16.93
2024-03-22T12:50:48.091Z,17.05
2024-03-22T12:51:48.098Z,16.94
2024-03-22T12:52:48.056Z,16.89
2024-03-22T12:53:48.070Z,16.90
2024-03-22T12:54:48.058Z,16.91
2024-03-22T12:55:48.022Z,16.87
2024-03-22T12:56:48.030Z,16.87
2024-03-22T12:57:48.006Z,16.86
2024-03-22T12:58:48.066Z,16.61
2024-03-22T12:59:48.142Z,16.61
2024-03-22T13:00:47.977Z,16.65
2024-03-22T13:01:47.968Z,16.60
2024-03-22T13:02:47.954Z,16.68
2024-03-22T13:03:47.995Z,16.75
2024-03-22T13:04:47.968Z,16.69
2024-03-22T13:05:47.916Z,16.66
2024-03-22T13:06:47.908Z,16.64